Belmont, Montana
Current Conditions -  °F | °C
As of 11:20 AM on Thursday 29 Jan 2015 (Local Time) from KMVH Reporting Station
Clear Clear  
Wind Chill: 41°   Ceiling: Unl
Heat Index: 41°   Visibility: 10mi
Dew Point: 25°   Wind: 0mph
Humidity: 53%   Direction: NA
Pressure: 30.33"   Gusts: NA
Location:  46.4448°N, 109.102°W
Report Text: KMVH 291820Z AUTO 00000KT 10SM CLR 05/M04 A3033 RMK A01
Loading
Personal Weather Stations






























Interactive Weather Map New forecast layout! Learn more

10-Day Weather Forecast

Advertisements
Track Severe Weather on mobile